Impacts METAR Board INFO
IDs:

KMIA - Miami Intl, FL, US

Updated at: 0914 UTC 20 Jan 2018
Potential Impact None Slight Moderate High
Time19/21Z 19/22Z 19/23Z 20/00Z 20/01Z 20/02Z 20/03Z 20/04Z 20/05Z 20/06Z 20/07Z 20/08Z 20/09Z
VIS10 10 10 10 10 10 10 10 10 10 10 10 10
CIG150 250 250 250 250 200 200 180 180 -- 40 38 40
CoverBKNBKNOVCBKNBKNOVCOVCOVCBKNSCTBKNBKNBKN
FltCatVFRVFRVFRVFRVFRVFRVFRVFRVFRVFRVFRVFRVFR
WX--------------------------
WDir90806030103603501003403400350
WSpd12 9 6 6 3 4 4 4 0 6 4 0 4
WGst-- -- -- -- -- -- -- -- -- -- -- -- --
Raw hourly METARs
KMIA 192053Z 09012KT 10SM SCT040 BKN150 BKN230 21/11 A3020 RMK AO2 SLP226 T02110106 56021
KMIA 192153Z 08009KT 10SM FEW040 SCT200 BKN250 20/11 A3021 RMK AO2 SLP229 T02000106
KMIA 192253Z 06006KT 10SM FEW040 OVC250 19/11 A3020 RMK AO2 SLP227 T01940106
KMIA 192353Z 03006KT 10SM FEW040 SCT200 BKN250 19/11 A3020 RMK AO2 SLP225 T01940111 10228 20161 58000
KMIA 200053Z 01003KT 10SM FEW040 SCT200 BKN250 19/11 A3021 RMK AO2 SLP231 T01890111
KMIA 200153Z 36004KT 10SM FEW040 BKN200 OVC250 19/11 A3023 RMK AO2 SLP236 T01890111
KMIA 200253Z 35004KT 10SM SCT040 BKN200 OVC250 19/12 A3024 RMK AO2 SLP240 T01890117 51015
KMIA 200353Z 01004KT 10SM SCT040 BKN180 OVC250 18/12 A3024 RMK AO2 SLP238 T01830117
KMIA 200453Z 00000KT 10SM FEW032 SCT040 BKN180 BKN250 18/12 A3023 RMK AO2 SLP236 T01780122 402280100
KMIA 200553Z 34006KT 10SM FEW032 SCT040 SCT180 SCT250 17/12 A3022 RMK AO2 SLP233 T01720122 10194 20172 58007
KMIA 200653Z 34004KT 10SM FEW032 BKN040 BKN200 17/12 A3021 RMK AO2 SLP230 T01670122
KMIA 200753Z 00000KT 10SM BKN038 BKN200 17/13 A3020 RMK AO2 SLP225 T01720128
KMIA 200853Z 35004KT 10SM BKN040 BKN160 BKN200 17/13 A3019 RMK AO2 SLP223 T01720128 57010